Accueil
METAR-TAF:

METAR-TAF

Aéroports :

Arnhem, Pays-Bas

latitude: 52-04N, longitude: 005-53E, altitude: 48 m

Observation

Le bulletin a été fait il y a 10 minutes, à 05:25 UTC
Vent 3 kt de ouest, variant entre ouest et nord/nord-ouest
Température 2°C
Humidité 87%
Pression 1022 hPa
Visibilité: 7000 m
Nuages épars à une hauteur de 2600 ft
Nuages fragmentés à une hauteur de 3100 ft
Ciel couvert à une hauteur de 5500 ft
brume

METAR: EHDL 080525Z AUTO 28003KT 280V340 7000 BR SCT026 BKN031 OVC055 02/M00 Q1022 WHT

Heure: 06:35 (05:35 UTC)


TAF: absent

Observations et prévisions météorologiques de plus de 4000 aéroports (messages METAR et TAF).

Les stations disponibles sont représentées par des disques jaunes et rouges sur la carte.

Passer la souris dessus pour voir le nom de la station.

Cliquer dessus pour voir les observations et prévisions météorologiques.

Pour changer de carte: cliquez sur les boutons verts avec une croix noire pour zoomer, sur le bouton vert avec un tiret pour effectuer un zoom arrière, ou sur les flèches vertes pour les cartes adjacentes.


METAR-TAF: